N47J KCLE-SVPC
Flight info
| Callsign | N47J |
|---|---|
| Flight time | N/A |
| Altitude | 41000 |
| Route | KKIDS1 NUSMM DCT THEOO Q129 GARIC AR3 CARPX Y307 CASPR AR3 NUCAR Y374 RUMFO Y298 KNSLY A315 JOSES UA315 PJG UL339 LOLAM |
| Aircraft | CL60/M-SADE3FGHIJ3J4J7P2RWXY/HB1D1 |
Departure
| Time | 2026-04-30 15:05 |
|---|---|
| Airport | Cleveland Hopkins International Airport (KCLE) |
Arrival
| Time | N/A |
|---|---|
| Airport | General Bartolome Salom International Airport (SVPC) |
| Time | Latitude | Longitude | Altitude | Speed | Heading |
|---|---|---|---|---|---|
| 2026-04-30 14:09 | 41.40212 | -81.85436 | 784 ft | 0 kts | 0° |
| 2026-04-30 14:58 | 41.40222 | -81.85433 | 784 ft | 0 kts | 14° |
| 2026-04-30 14:59 | 41.40253 | -81.85422 | 784 ft | 10 kts | 14° |
| 2026-04-30 15:00 | 41.40493 | -81.85502 | 783 ft | 2 kts | 341° |
| 2026-04-30 15:00 | 41.40536 | -81.85552 | 781 ft | 8 kts | 244° |
| 2026-04-30 15:01 | 41.40442 | -81.85708 | 778 ft | 13 kts | 231° |
| 2026-04-30 15:01 | 41.40372 | -81.85814 | 776 ft | 16 kts | 228° |
| 2026-04-30 15:01 | 41.40202 | -81.85947 | 777 ft | 13 kts | 186° |
| 2026-04-30 15:02 | 41.40115 | -81.86013 | 776 ft | 16 kts | 229° |
| 2026-04-30 15:02 | 41.40044 | -81.86143 | 773 ft | 19 kts | 234° |
| 2026-04-30 15:03 | 41.39777 | -81.86553 | 763 ft | 18 kts | 230° |
| 2026-04-30 15:03 | 41.39655 | -81.86814 | 756 ft | 12 kts | 300° |
| 2026-04-30 15:04 | 41.39767 | -81.86974 | 757 ft | 6 kts | 345° |
| 2026-04-30 15:04 | 41.39793 | -81.86955 | 756 ft | 0 kts | 50° |
| 2026-04-30 15:05 | 41.41008 | -81.84945 | 1433 ft | 152 kts | 51° |
| 2026-04-30 15:06 | 41.42224 | -81.82680 | 2983 ft | 168 kts | 49° |
| 2026-04-30 15:06 | 41.43233 | -81.79293 | 4308 ft | 223 kts | 73° |
| 2026-04-30 15:07 | 41.43954 | -81.75039 | 5815 ft | 262 kts | 73° |
| 2026-04-30 15:07 | 41.44804 | -81.70054 | 5999 ft | 277 kts | 73° |
| 2026-04-30 15:08 | 41.44684 | -81.64951 | 6006 ft | 285 kts | 111° |
| 2026-04-30 15:08 | 41.40796 | -81.58933 | 6028 ft | 286 kts | 133° |
| 2026-04-30 15:09 | 41.38009 | -81.55112 | 6915 ft | 305 kts | 133° |
| 2026-04-30 15:09 | 41.34969 | -81.50945 | 8995 ft | 324 kts | 134° |
| 2026-04-30 15:10 | 41.31792 | -81.46716 | 11333 ft | 328 kts | 143° |
| 2026-04-30 15:11 | 41.23379 | -81.42577 | 15475 ft | 332 kts | 167° |
| 2026-04-30 15:11 | 41.18788 | -81.40524 | 16399 ft | 368 kts | 163° |
| 2026-04-30 15:12 | 41.11315 | -81.36668 | 18078 ft | 399 kts | 163° |
| 2026-04-30 15:13 | 41.06062 | -81.33956 | 19368 ft | 408 kts | 164° |
| 2026-04-30 15:14 | 40.95482 | -81.28503 | 22101 ft | 417 kts | 165° |
| 2026-04-30 15:14 | 40.87288 | -81.24294 | 23818 ft | 426 kts | 165° |
| 2026-04-30 15:16 | 40.73230 | -81.17094 | 26334 ft | 440 kts | 166° |
| 2026-04-30 15:17 | 40.61770 | -81.11243 | 28306 ft | 443 kts | 167° |
| 2026-04-30 15:18 | 40.47033 | -81.03767 | 29567 ft | 467 kts | 167° |
| 2026-04-30 15:19 | 40.37809 | -80.99101 | 30149 ft | 480 kts | 167° |
| 2026-04-30 17:39 | 24.10581 | -71.87470 | 41008 ft | 458 kts | 178° |
| 2026-04-30 17:42 | 23.78969 | -71.83184 | 41006 ft | 457 kts | 178° |
| 2026-04-30 17:43 | 23.63176 | -71.81049 | 41004 ft | 458 kts | 178° |
| 2026-04-30 17:44 | 23.44144 | -71.78637 | 40996 ft | 457 kts | 179° |
| 2026-04-30 17:46 | 23.28495 | -71.74956 | 41002 ft | 466 kts | 168° |
| 2026-04-30 17:47 | 23.16125 | -71.70667 | 41000 ft | 465 kts | 168° |
| 2026-04-30 17:48 | 22.94556 | -71.63203 | 40997 ft | 464 kts | 168° |
| 2026-04-30 17:50 | 22.69877 | -71.54855 | 40999 ft | 464 kts | 169° |
| 2026-04-30 17:52 | 22.51330 | -71.48789 | 40983 ft | 464 kts | 169° |
| 2026-04-30 17:54 | 22.23416 | -71.39685 | 40981 ft | 465 kts | 169° |
| 2026-04-30 17:56 | 21.98638 | -71.31544 | 40985 ft | 465 kts | 169° |
| 2026-04-30 17:58 | 21.80036 | -71.25379 | 40982 ft | 464 kts | 169° |
| 2026-04-30 18:00 | 21.55359 | -71.17228 | 40969 ft | 463 kts | 169° |
| 2026-04-30 18:01 | 21.39951 | -71.12172 | 40967 ft | 462 kts | 169° |
| 2026-04-30 18:02 | 21.21475 | -71.06202 | 40972 ft | 460 kts | 169° |
| 2026-04-30 18:04 | 21.03091 | -71.00275 | 40975 ft | 459 kts | 169° |
| 2026-04-30 18:06 | 20.78660 | -70.92122 | 40965 ft | 459 kts | 168° |
| 2026-04-30 18:08 | 20.57350 | -70.84872 | 40958 ft | 459 kts | 168° |
| 2026-04-30 18:10 | 20.32978 | -70.76570 | 40950 ft | 460 kts | 168° |
| 2026-04-30 18:11 | 20.11610 | -70.69249 | 40936 ft | 459 kts | 168° |
| 2026-04-30 18:13 | 19.96422 | -70.64059 | 40945 ft | 458 kts | 168° |
| 2026-04-30 18:14 | 19.81183 | -70.58862 | 40966 ft | 459 kts | 168° |
| 2026-04-30 18:15 | 19.72395 | -70.54649 | 40969 ft | 471 kts | 152° |
| 2026-04-30 18:15 | 19.64098 | -70.48987 | 41002 ft | 472 kts | 152° |
| 2026-04-30 18:16 | 19.53019 | -70.41441 | 41026 ft | 472 kts | 152° |
| 2026-04-30 18:17 | 19.47487 | -70.37676 | 41020 ft | 472 kts | 152° |
| 2026-04-30 18:18 | 19.39198 | -70.32039 | 40991 ft | 471 kts | 153° |
| 2026-04-30 18:18 | 19.33716 | -70.28303 | 40977 ft | 471 kts | 152° |
| 2026-04-30 18:19 | 19.28253 | -70.24477 | 40962 ft | 471 kts | 152° |
| 2026-04-30 18:19 | 19.22782 | -70.20647 | 40966 ft | 472 kts | 152° |
| 2026-04-30 18:20 | 19.17304 | -70.16814 | 40965 ft | 472 kts | 152° |
| 2026-04-30 18:20 | 19.11791 | -70.12987 | 40961 ft | 472 kts | 153° |
| 2026-04-30 18:21 | 19.06254 | -70.09225 | 40962 ft | 472 kts | 153° |
| 2026-04-30 18:21 | 19.00759 | -70.05494 | 40952 ft | 472 kts | 153° |
| 2026-04-30 18:22 | 18.95212 | -70.01731 | 40945 ft | 472 kts | 153° |
| 2026-04-30 18:22 | 18.86918 | -69.96108 | 40949 ft | 471 kts | 153° |
| 2026-04-30 18:23 | 18.81394 | -69.92368 | 40944 ft | 472 kts | 153° |
| 2026-04-30 18:23 | 18.75882 | -69.88638 | 40942 ft | 472 kts | 153° |
| 2026-04-30 18:24 | 18.67570 | -69.83019 | 40947 ft | 471 kts | 153° |
| 2026-04-30 18:25 | 18.62072 | -69.79305 | 40946 ft | 470 kts | 153° |
| 2026-04-30 18:25 | 18.53776 | -69.73708 | 40943 ft | 471 kts | 153° |
| 2026-04-30 18:26 | 18.45496 | -69.68128 | 40946 ft | 471 kts | 153° |
| 2026-04-30 18:27 | 18.36807 | -69.63674 | 40938 ft | 462 kts | 163° |
| 2026-04-30 18:28 | 18.27956 | -69.59624 | 40930 ft | 462 kts | 163° |
| 2026-04-30 18:28 | 18.19071 | -69.55561 | 40917 ft | 461 kts | 163° |
| 2026-04-30 18:29 | 18.07304 | -69.50186 | 40916 ft | 462 kts | 163° |
| 2026-04-30 18:30 | 17.95478 | -69.44791 | 40914 ft | 462 kts | 163° |
| 2026-04-30 18:31 | 17.86651 | -69.40768 | 40919 ft | 461 kts | 163° |
| 2026-04-30 18:32 | 17.77827 | -69.36751 | 40923 ft | 460 kts | 163° |
| 2026-04-30 18:33 | 17.68996 | -69.32735 | 40922 ft | 459 kts | 163° |
| 2026-04-30 18:33 | 17.60210 | -69.28741 | 40920 ft | 459 kts | 163° |
| 2026-04-30 18:34 | 17.51401 | -69.24740 | 40920 ft | 460 kts | 163° |
| 2026-04-30 18:35 | 17.45509 | -69.22066 | 40917 ft | 460 kts | 163° |
| 2026-04-30 18:35 | 17.39639 | -69.19404 | 40915 ft | 460 kts | 163° |
| 2026-04-30 18:36 | 17.30808 | -69.15403 | 40916 ft | 460 kts | 163° |
| 2026-04-30 18:37 | 17.22004 | -69.11418 | 40911 ft | 459 kts | 163° |
| 2026-04-30 18:37 | 17.16143 | -69.08768 | 40914 ft | 458 kts | 163° |
| 2026-04-30 18:38 | 17.10292 | -69.06123 | 40920 ft | 458 kts | 163° |
| 2026-04-30 18:38 | 17.04417 | -69.03471 | 40927 ft | 459 kts | 163° |
| 2026-04-30 18:39 | 16.98547 | -69.00822 | 40924 ft | 459 kts | 163° |
| 2026-04-30 18:39 | 16.92684 | -68.98179 | 40925 ft | 460 kts | 163° |
| 2026-04-30 18:40 | 16.86788 | -68.95522 | 40926 ft | 460 kts | 163° |
| 2026-04-30 18:40 | 16.80916 | -68.92878 | 40919 ft | 459 kts | 163° |
| 2026-04-30 18:41 | 16.75063 | -68.90243 | 40925 ft | 457 kts | 163° |
| 2026-04-30 18:41 | 16.69210 | -68.87612 | 40916 ft | 458 kts | 163° |
| 2026-04-30 18:42 | 16.63311 | -68.84962 | 40909 ft | 458 kts | 163° |
| 2026-04-30 18:42 | 16.54502 | -68.81007 | 40902 ft | 458 kts | 163° |
| 2026-04-30 18:45 | 16.22302 | -68.66585 | 40890 ft | 458 kts | 162° |
| 2026-04-30 18:46 | 16.16447 | -68.63969 | 40895 ft | 457 kts | 163° |
| 2026-04-30 18:46 | 16.10598 | -68.61356 | 40897 ft | 457 kts | 162° |
| 2026-04-30 18:47 | 16.04720 | -68.58733 | 40882 ft | 458 kts | 162° |
| 2026-04-30 18:47 | 15.98782 | -68.56397 | 40886 ft | 449 kts | 172° |
| 2026-04-30 18:48 | 15.92698 | -68.55080 | 40888 ft | 447 kts | 174° |
| 2026-04-30 18:48 | 15.86582 | -68.53781 | 40888 ft | 447 kts | 174° |
| 2026-04-30 18:49 | 15.80487 | -68.52486 | 40892 ft | 447 kts | 174° |
| 2026-04-30 18:49 | 15.74376 | -68.51190 | 40893 ft | 448 kts | 174° |
| 2026-04-30 18:50 | 15.68253 | -68.49892 | 40892 ft | 450 kts | 174° |
| 2026-04-30 18:50 | 15.62112 | -68.48592 | 40896 ft | 451 kts | 174° |
| 2026-04-30 18:51 | 15.55949 | -68.47286 | 40893 ft | 451 kts | 174° |
| 2026-04-30 18:51 | 15.49806 | -68.45986 | 40892 ft | 451 kts | 174° |
| 2026-04-30 18:52 | 15.43631 | -68.44681 | 40893 ft | 451 kts | 174° |
| 2026-04-30 18:52 | 15.37467 | -68.43378 | 40894 ft | 451 kts | 174° |
| 2026-04-30 18:53 | 15.31309 | -68.42078 | 40893 ft | 452 kts | 174° |
| 2026-04-30 18:53 | 15.25129 | -68.40775 | 40891 ft | 453 kts | 173° |
| 2026-04-30 18:54 | 15.18913 | -68.39468 | 40898 ft | 454 kts | 174° |
| 2026-04-30 18:54 | 15.12705 | -68.38180 | 40895 ft | 454 kts | 173° |
| 2026-04-30 18:55 | 15.06520 | -68.36896 | 40890 ft | 453 kts | 174° |
| 2026-04-30 18:55 | 14.97229 | -68.34970 | 40888 ft | 454 kts | 174° |
| 2026-04-30 18:56 | 14.87900 | -68.33038 | 40876 ft | 454 kts | 173° |
| 2026-04-30 18:57 | 14.78584 | -68.31109 | 40874 ft | 455 kts | 174° |
| 2026-04-30 18:57 | 14.72382 | -68.29824 | 40882 ft | 455 kts | 173° |
| 2026-04-30 18:58 | 14.63050 | -68.27875 | 40880 ft | 454 kts | 174° |
| 2026-04-30 18:59 | 14.53706 | -68.25925 | 40876 ft | 454 kts | 174° |
| 2026-04-30 19:00 | 14.41230 | -68.23325 | 40877 ft | 454 kts | 174° |
| 2026-04-30 19:01 | 14.28816 | -68.20741 | 40884 ft | 454 kts | 174° |
| 2026-04-30 19:02 | 14.19504 | -68.18773 | 40878 ft | 456 kts | 171° |
| 2026-04-30 19:03 | 14.07335 | -68.14631 | 40883 ft | 459 kts | 166° |
| 2026-04-30 19:04 | 13.95155 | -68.10414 | 40881 ft | 459 kts | 166° |
| 2026-04-30 19:05 | 13.83019 | -68.06221 | 40878 ft | 459 kts | 167° |
| 2026-04-30 19:06 | 13.70860 | -68.02027 | 40875 ft | 458 kts | 166° |
| 2026-04-30 19:06 | 13.61773 | -67.98897 | 40871 ft | 458 kts | 166° |
| 2026-04-30 19:07 | 13.52689 | -67.95771 | 40867 ft | 459 kts | 166° |
| 2026-04-30 19:08 | 13.40588 | -67.91611 | 40859 ft | 458 kts | 166° |
| 2026-04-30 19:09 | 13.31498 | -67.88489 | 40866 ft | 458 kts | 166° |
| 2026-04-30 19:09 | 13.25454 | -67.86406 | 40866 ft | 458 kts | 166° |
| 2026-04-30 19:10 | 13.13354 | -67.82224 | 40865 ft | 458 kts | 166° |
| 2026-04-30 19:11 | 13.04612 | -67.78135 | 40859 ft | 468 kts | 150° |
| 2026-04-30 19:12 | 12.99253 | -67.74339 | 40861 ft | 468 kts | 149° |
| 2026-04-30 19:12 | 12.93893 | -67.70548 | 40864 ft | 468 kts | 149° |
| 2026-04-30 19:13 | 12.83152 | -67.62965 | 40862 ft | 468 kts | 149° |
| 2026-04-30 19:14 | 12.77776 | -67.59180 | 40860 ft | 468 kts | 149° |
| 2026-04-30 19:14 | 12.72406 | -67.55402 | 40860 ft | 469 kts | 149° |
| 2026-04-30 19:15 | 12.67024 | -67.51615 | 40856 ft | 469 kts | 149° |
| 2026-04-30 19:15 | 12.58958 | -67.45946 | 40857 ft | 468 kts | 149° |
| 2026-04-30 19:16 | 12.53575 | -67.42163 | 40857 ft | 468 kts | 149° |
| 2026-04-30 19:17 | 12.45503 | -67.36496 | 40855 ft | 469 kts | 149° |
| 2026-04-30 19:17 | 12.37422 | -67.30826 | 40610 ft | 472 kts | 149° |
| 2026-04-30 19:18 | 12.32866 | -67.27632 | 39763 ft | 476 kts | 149° |
| 2026-04-30 19:18 | 12.29211 | -67.25069 | 38974 ft | 474 kts | 149° |
| 2026-04-30 19:18 | 12.26483 | -67.23158 | 38378 ft | 473 kts | 149° |
| 2026-04-30 19:19 | 12.23768 | -67.21255 | 37763 ft | 473 kts | 149° |
| 2026-04-30 19:19 | 12.21063 | -67.19360 | 37144 ft | 473 kts | 149° |
| 2026-04-30 19:19 | 12.15638 | -67.15562 | 35907 ft | 473 kts | 149° |
| 2026-04-30 19:20 | 12.12902 | -67.13646 | 35273 ft | 474 kts | 149° |
| 2026-04-30 19:20 | 12.10196 | -67.11752 | 34660 ft | 474 kts | 149° |
| 2026-04-30 19:20 | 12.04731 | -67.07931 | 33411 ft | 476 kts | 149° |
| 2026-04-30 19:21 | 12.02011 | -67.06028 | 32799 ft | 475 kts | 149° |
| 2026-04-30 19:21 | 11.96571 | -67.02221 | 31604 ft | 468 kts | 148° |
| 2026-04-30 19:22 | 11.91266 | -66.98503 | 30367 ft | 458 kts | 147° |
| 2026-04-30 19:22 | 11.83378 | -66.93269 | 28505 ft | 442 kts | 157° |
| 2026-04-30 19:23 | 11.74579 | -66.92683 | 26650 ft | 422 kts | 197° |
| 2026-04-30 19:24 | 11.69471 | -66.95451 | 25396 ft | 413 kts | 215° |
| 2026-04-30 19:24 | 11.67122 | -66.97087 | 24776 ft | 409 kts | 214° |
| 2026-04-30 19:24 | 11.62444 | -67.00330 | 23528 ft | 403 kts | 214° |
| 2026-04-30 19:25 | 11.55770 | -67.04949 | 21724 ft | 394 kts | 214° |
| 2026-04-30 19:26 | 11.51276 | -67.08057 | 20478 ft | 388 kts | 214° |
| 2026-04-30 19:26 | 11.46845 | -67.11120 | 19227 ft | 382 kts | 213° |
| 2026-04-30 19:26 | 11.44640 | -67.12643 | 18598 ft | 379 kts | 213° |
| 2026-04-30 19:27 | 11.40329 | -67.15619 | 17354 ft | 373 kts | 213° |
| 2026-04-30 19:27 | 11.36058 | -67.18567 | 16113 ft | 369 kts | 212° |
| 2026-04-30 19:28 | 11.33939 | -67.20028 | 15490 ft | 366 kts | 212° |
| 2026-04-30 19:28 | 11.29336 | -67.21941 | 14251 ft | 354 kts | 183° |
| 2026-04-30 19:29 | 11.24481 | -67.21894 | 12995 ft | 348 kts | 174° |
| 2026-04-30 19:29 | 11.22067 | -67.21799 | 12375 ft | 343 kts | 174° |
| 2026-04-30 19:30 | 11.14984 | -67.21590 | 10502 ft | 334 kts | 173° |
| 2026-04-30 19:30 | 11.10400 | -67.21423 | 9227 ft | 323 kts | 175° |
| 2026-04-30 19:31 | 11.06048 | -67.21280 | 7981 ft | 302 kts | 174° |
| 2026-04-30 19:31 | 11.03963 | -67.21210 | 7368 ft | 294 kts | 175° |
| 2026-04-30 19:31 | 10.99971 | -67.21075 | 6141 ft | 281 kts | 175° |
| 2026-04-30 19:32 | 10.98047 | -67.21111 | 5559 ft | 276 kts | 180° |
| 2026-04-30 19:32 | 10.96171 | -67.21281 | 5118 ft | 264 kts | 182° |
| 2026-04-30 19:32 | 10.94343 | -67.21461 | 5017 ft | 260 kts | 181° |
| 2026-04-30 19:32 | 10.92529 | -67.21454 | 4960 ft | 258 kts | 171° |
| 2026-04-30 19:33 | 10.90731 | -67.21310 | 4954 ft | 258 kts | 173° |
| 2026-04-30 19:33 | 10.88951 | -67.21119 | 4964 ft | 259 kts | 173° |
| 2026-04-30 19:33 | 10.87142 | -67.21006 | 4971 ft | 260 kts | 174° |
| 2026-04-30 19:33 | 10.85308 | -67.21132 | 4990 ft | 264 kts | 191° |
| 2026-04-30 19:34 | 10.83635 | -67.21936 | 5013 ft | 270 kts | 217° |
| 2026-04-30 19:34 | 10.82435 | -67.23416 | 5009 ft | 272 kts | 233° |
| 2026-04-30 19:34 | 10.80407 | -67.26530 | 4969 ft | 247 kts | 233° |
| 2026-04-30 19:35 | 10.79499 | -67.27934 | 4979 ft | 228 kts | 233° |
| 2026-04-30 19:35 | 10.78665 | -67.29228 | 4965 ft | 211 kts | 233° |
| 2026-04-30 19:35 | 10.77897 | -67.30429 | 4957 ft | 194 kts | 234° |
| 2026-04-30 19:35 | 10.77176 | -67.31583 | 4957 ft | 191 kts | 235° |
| 2026-04-30 19:36 | 10.76458 | -67.32733 | 4956 ft | 191 kts | 235° |
| 2026-04-30 19:36 | 10.75741 | -67.33865 | 4945 ft | 190 kts | 232° |
| 2026-04-30 19:36 | 10.74300 | -67.36127 | 4947 ft | 191 kts | 233° |
| 2026-04-30 19:37 | 10.73573 | -67.37264 | 4951 ft | 190 kts | 233° |
| 2026-04-30 19:37 | 10.72845 | -67.38394 | 4958 ft | 191 kts | 232° |
| 2026-04-30 19:37 | 10.72070 | -67.39496 | 4943 ft | 188 kts | 218° |
| 2026-04-30 19:37 | 10.70916 | -67.39944 | 4893 ft | 176 kts | 179° |
| 2026-04-30 19:38 | 10.69684 | -67.39946 | 4969 ft | 179 kts | 174° |
| 2026-04-30 19:38 | 10.68417 | -67.39895 | 4960 ft | 178 kts | 175° |
| 2026-04-30 19:38 | 10.67266 | -67.39749 | 4958 ft | 155 kts | 156° |
| 2026-04-30 19:38 | 10.66380 | -67.39200 | 4918 ft | 148 kts | 132° |
| 2026-04-30 19:39 | 10.65771 | -67.38372 | 4866 ft | 144 kts | 115° |
| 2026-04-30 19:39 | 10.65399 | -67.37408 | 4826 ft | 152 kts | 105° |
| 2026-04-30 19:39 | 10.65064 | -67.36360 | 4811 ft | 157 kts | 105° |
| 2026-04-30 19:39 | 10.64737 | -67.35293 | 4753 ft | 157 kts | 104° |
| 2026-04-30 19:40 | 10.64409 | -67.34236 | 4700 ft | 157 kts | 105° |
| 2026-04-30 19:40 | 10.64084 | -67.33171 | 4657 ft | 157 kts | 103° |
| 2026-04-30 19:40 | 10.63760 | -67.32109 | 4611 ft | 157 kts | 103° |
| 2026-04-30 19:40 | 10.63417 | -67.31052 | 4546 ft | 158 kts | 105° |
| 2026-04-30 19:41 | 10.63056 | -67.30000 | 4490 ft | 157 kts | 108° |
| 2026-04-30 19:41 | 10.62691 | -67.28956 | 4435 ft | 157 kts | 109° |
| 2026-04-30 19:41 | 10.62322 | -67.27911 | 4381 ft | 156 kts | 109° |
| 2026-04-30 19:41 | 10.61959 | -67.26874 | 4329 ft | 156 kts | 109° |
| 2026-04-30 19:42 | 10.61596 | -67.25828 | 4277 ft | 156 kts | 109° |
| 2026-04-30 19:42 | 10.61238 | -67.24791 | 4251 ft | 153 kts | 109° |
| 2026-04-30 19:42 | 10.60881 | -67.23753 | 4176 ft | 155 kts | 109° |
| 2026-04-30 19:42 | 10.60528 | -67.22720 | 4123 ft | 155 kts | 109° |
| 2026-04-30 19:43 | 10.60176 | -67.21687 | 4076 ft | 155 kts | 109° |
| 2026-04-30 19:43 | 10.59827 | -67.20650 | 4021 ft | 155 kts | 108° |
| 2026-04-30 19:43 | 10.59712 | -67.19560 | 3854 ft | 158 kts | 89° |
| 2026-04-30 19:44 | 10.59829 | -67.17378 | 3335 ft | 149 kts | 88° |
| 2026-04-30 19:44 | 10.59867 | -67.16336 | 3083 ft | 144 kts | 88° |
| 2026-04-30 19:44 | 10.59902 | -67.15332 | 2910 ft | 141 kts | 88° |
| 2026-04-30 19:44 | 10.59935 | -67.14329 | 2752 ft | 142 kts | 88° |
| 2026-04-30 19:45 | 10.59969 | -67.13326 | 2561 ft | 141 kts | 88° |
| 2026-04-30 19:45 | 10.60002 | -67.12334 | 2385 ft | 140 kts | 89° |
| 2026-04-30 19:45 | 10.60034 | -67.11343 | 2196 ft | 138 kts | 88° |
| 2026-04-30 19:45 | 10.60067 | -67.10365 | 2022 ft | 138 kts | 89° |
| 2026-04-30 19:46 | 10.60099 | -67.09398 | 1843 ft | 136 kts | 88° |
| 2026-04-30 19:46 | 10.60130 | -67.08433 | 1664 ft | 136 kts | 88° |
| 2026-04-30 19:46 | 10.60163 | -67.07582 | 1512 ft | 136 kts | 88° |
| 2026-04-30 19:46 | 10.60195 | -67.06621 | 1319 ft | 136 kts | 89° |
| 2026-04-30 19:47 | 10.60223 | -67.05660 | 1145 ft | 137 kts | 89° |
| 2026-04-30 19:47 | 10.60244 | -67.05012 | 1019 ft | 137 kts | 88° |
| 2026-04-30 19:47 | 10.60285 | -67.03736 | 786 ft | 134 kts | 88° |
| 2026-04-30 19:47 | 10.60325 | -67.02783 | 610 ft | 138 kts | 85° |
| 2026-04-30 19:48 | 10.60345 | -67.01809 | 497 ft | 131 kts | 86° |
| 2026-04-30 19:48 | 10.60390 | -67.00944 | 322 ft | 116 kts | 88° |
| 2026-04-30 19:48 | 10.60415 | -67.00221 | 305 ft | 85 kts | 88° |
| 2026-04-30 19:48 | 10.60426 | -66.99706 | 287 ft | 68 kts | 88° |
| 2026-04-30 19:49 | 10.60436 | -66.99271 | 268 ft | 22 kts | 89° |
| 2026-04-30 19:49 | 10.60350 | -66.99119 | 261 ft | 8 kts | 179° |